METAR Data
IDs: Format: Raw Decoded Include TAF

Data at: 2114 UTC 18 Apr 2021

LETO 182100Z 04006KT CAVOK 11/02 Q1020 NOSIG